createdAt,value
2022-07-25T00:01:20.584Z,100937.91
2022-07-25T00:03:48.863Z,100930.03
2022-07-25T00:06:18.301Z,100933.59
2022-07-25T00:08:46.263Z,100939.28
2022-07-25T00:11:14.173Z,100943.31
2022-07-25T00:13:42.108Z,100936.94
2022-07-25T00:16:10.140Z,100936.44
2022-07-25T00:18:38.266Z,100940.00
2022-07-25T00:21:06.413Z,100944.28
2022-07-25T00:23:35.911Z,100941.56
2022-07-25T00:26:03.786Z,100928.47
2022-07-25T00:28:31.718Z,100935.81
2022-07-25T00:30:59.718Z,100925.88
2022-07-25T00:33:27.641Z,100929.31
2022-07-25T00:35:55.628Z,100927.09
2022-07-25T00:38:23.579Z,100930.31
2022-07-25T00:40:55.723Z,100924.91
2022-07-25T00:43:23.815Z,100914.84
2022-07-25T00:45:51.866Z,100926.75
2022-07-25T00:48:19.874Z,100922.81
2022-07-25T00:50:47.888Z,100919.16
2022-07-25T00:53:15.836Z,100914.38
2022-07-25T00:55:43.763Z,100916.94
2022-07-25T00:58:13.136Z,100915.00
2022-07-25T01:00:41.239Z,100903.19
2022-07-25T01:03:09.257Z,100903.94
2022-07-25T01:05:37.277Z,100898.31
2022-07-25T01:08:05.740Z,100896.34
2022-07-25T01:10:33.775Z,100888.09
2022-07-25T01:13:01.781Z,100893.25
2022-07-25T01:15:31.323Z,100897.78
2022-07-25T01:17:59.686Z,100891.06
2022-07-25T01:20:29.976Z,100887.72
2022-07-25T01:22:57.993Z,100889.56
2022-07-25T01:25:26.494Z,100884.44
2022-07-25T01:27:55.738Z,100894.38
2022-07-25T01:30:24.580Z,100886.13
2022-07-25T01:32:52.681Z,100886.03
2022-07-25T01:35:20.636Z,100898.66
2022-07-25T01:37:49.999Z,100897.56
2022-07-25T01:40:17.987Z,100901.31
2022-07-25T01:42:45.998Z,100905.81
2022-07-25T01:45:14.068Z,100897.00
2022-07-25T01:47:42.082Z,100894.38
2022-07-25T01:50:10.986Z,100891.28
2022-07-25T01:52:39.647Z,100899.38
2022-07-25T01:55:09.946Z,100902.41
2022-07-25T01:57:39.072Z,100890.16
2022-07-25T02:00:09.979Z,100885.88
2022-07-25T02:02:37.896Z,100891.47
2022-07-25T02:05:06.482Z,100893.19
2022-07-25T02:07:34.542Z,100884.03
2022-07-25T02:10:02.502Z,100880.13
2022-07-25T02:12:31.886Z,100880.00
2022-07-25T02:14:59.927Z,100887.25
2022-07-25T02:17:28.059Z,100882.69
2022-07-25T02:19:56.017Z,100881.13
2022-07-25T02:22:24.407Z,100886.06
2022-07-25T02:24:52.348Z,100887.06
2022-07-25T02:27:20.279Z,100873.72
2022-07-25T02:29:49.661Z,100842.06
2022-07-25T02:32:17.599Z,100881.22
2022-07-25T02:34:45.577Z,100887.25
2022-07-25T02:37:14.037Z,100891.41
2022-07-25T02:39:41.965Z,100881.25
2022-07-25T02:42:09.907Z,100884.59
2022-07-25T02:44:37.876Z,100884.34
2022-07-25T02:47:07.314Z,100881.41
2022-07-25T02:49:35.255Z,100880.09
2022-07-25T02:52:03.274Z,100869.22
2022-07-25T02:54:31.202Z,100883.09
2022-07-25T02:56:59.136Z,100871.44
2022-07-25T02:59:32.420Z,100882.34
2022-07-25T03:02:00.507Z,100880.94
2022-07-25T03:04:31.140Z,100876.03
2022-07-25T03:06:59.106Z,100864.00
2022-07-25T03:09:27.103Z,100863.13
2022-07-25T03:11:55.154Z,100871.47
2022-07-25T03:14:23.117Z,100873.31
2022-07-25T03:16:51.063Z,100864.22
2022-07-25T03:19:19.093Z,100865.00
2022-07-25T03:21:48.410Z,100871.44
2022-07-25T03:24:17.097Z,100882.09
2022-07-25T03:26:45.765Z,100873.03
2022-07-25T03:29:13.703Z,100879.00
2022-07-25T03:31:41.710Z,100863.09
2022-07-25T03:34:09.965Z,100853.88
2022-07-25T03:36:38.005Z,100856.66
2022-07-25T03:39:07.309Z,100850.78
2022-07-25T03:41:35.234Z,100856.91
2022-07-25T03:44:03.659Z,100852.25
2022-07-25T03:46:31.997Z,100858.25
2022-07-25T03:49:00.140Z,100848.25
2022-07-25T03:51:28.138Z,100856.84
2022-07-25T03:54:06.256Z,100859.09
2022-07-25T03:56:38.375Z,100848.88
2022-07-25T03:59:12.324Z,100851.88
2022-07-25T04:01:40.336Z,100851.41
2022-07-25T04:04:08.670Z,100851.84
2022-07-25T04:06:36.980Z,100855.81
2022-07-25T04:09:05.134Z,100849.00
2022-07-25T04:11:33.114Z,100863.06
2022-07-25T04:14:02.677Z,100857.06
2022-07-25T04:16:30.744Z,100860.59
2022-07-25T04:18:58.750Z,100853.59
2022-07-25T04:21:29.069Z,100854.59
2022-07-25T04:23:57.035Z,100848.34
2022-07-25T04:26:25.000Z,100851.56
2022-07-25T04:28:52.915Z,100853.06
2022-07-25T04:31:22.292Z,100848.41
2022-07-25T04:33:50.232Z,100850.75
2022-07-25T04:36:18.158Z,100849.44
2022-07-25T04:38:47.508Z,100848.34
2022-07-25T04:41:15.445Z,100846.63
2022-07-25T04:43:48.282Z,100839.03
2022-07-25T04:46:20.022Z,100848.97
2022-07-25T04:48:49.543Z,100846.16
2022-07-25T04:51:17.566Z,100843.59
2022-07-25T04:53:45.613Z,100834.53
2022-07-25T04:56:13.598Z,100845.19
2022-07-25T04:58:41.582Z,100849.50
2022-07-25T05:01:09.651Z,100849.25
2022-07-25T05:03:38.062Z,100854.19
2022-07-25T05:06:08.033Z,100857.38
2022-07-25T05:08:36.029Z,100853.72
2022-07-25T05:11:04.032Z,100863.41
2022-07-25T05:13:32.003Z,100857.16
2022-07-25T05:15:59.970Z,100859.84
2022-07-25T05:18:27.985Z,100861.53
2022-07-25T05:20:55.984Z,100863.03
2022-07-25T05:23:25.395Z,100869.78
2022-07-25T05:25:53.379Z,100874.09
2022-07-25T05:28:21.332Z,100871.25
2022-07-25T05:30:49.283Z,100871.16
2022-07-25T05:33:17.257Z,100875.97
2022-07-25T05:35:45.189Z,100882.00
2022-07-25T05:38:13.200Z,100882.25
2022-07-25T05:40:42.642Z,100883.88
2022-07-25T05:43:10.727Z,100880.44
2022-07-25T05:45:38.741Z,100891.31
2022-07-25T05:48:07.005Z,100875.53
2022-07-25T05:50:34.970Z,100869.50
2022-07-25T05:53:03.108Z,100883.19
2022-07-25T05:55:31.070Z,100880.22
2022-07-25T05:58:00.382Z,100878.59
2022-07-25T06:00:31.091Z,100880.22
2022-07-25T06:03:00.408Z,100885.25
2022-07-25T06:05:28.593Z,100888.47
2022-07-25T06:07:56.539Z,100890.31
2022-07-25T06:10:24.510Z,100888.22
2022-07-25T06:12:52.661Z,100895.22
2022-07-25T06:15:22.916Z,100902.94
2022-07-25T06:17:54.743Z,100898.06
2022-07-25T06:20:22.938Z,100907.28
2022-07-25T06:22:50.872Z,100908.75
2022-07-25T06:25:18.807Z,100903.75
2022-07-25T06:27:47.186Z,100907.44
2022-07-25T06:30:20.275Z,100913.81
2022-07-25T06:32:50.255Z,100924.97
2022-07-25T06:35:18.321Z,100916.78
2022-07-25T06:37:46.286Z,100927.22
2022-07-25T06:40:14.436Z,100929.53
2022-07-25T06:42:43.203Z,100932.94
2022-07-25T06:45:11.937Z,100923.94
2022-07-25T06:47:40.300Z,100933.06
2022-07-25T06:50:11.467Z,100928.03
2022-07-25T06:52:39.739Z,100928.16
2022-07-25T06:55:09.101Z,100930.59
2022-07-25T06:57:42.748Z,100915.97
2022-07-25T07:00:12.137Z,100945.84
2022-07-25T07:02:49.122Z,100951.06
2022-07-25T07:05:18.505Z,100943.59
2022-07-25T07:07:48.000Z,100957.84
2022-07-25T07:10:16.191Z,100950.50
2022-07-25T07:12:44.481Z,100963.63
2022-07-25T07:15:12.571Z,100960.69
2022-07-25T07:17:40.594Z,100966.72
2022-07-25T07:20:09.543Z,100969.69
2022-07-25T07:22:49.211Z,100973.59
2022-07-25T07:25:18.767Z,100977.44
2022-07-25T07:27:47.875Z,100975.91
2022-07-25T07:30:18.564Z,100975.69
2022-07-25T07:32:50.168Z,100981.56
2022-07-25T07:35:19.194Z,100992.47
2022-07-25T07:37:48.583Z,100997.75
2022-07-25T07:40:17.946Z,100999.00
2022-07-25T07:42:47.458Z,101005.88
2022-07-25T07:45:17.466Z,101002.16
2022-07-25T07:47:47.971Z,101011.75
2022-07-25T07:50:16.201Z,101013.59
2022-07-25T07:52:44.300Z,101018.88
2022-07-25T07:55:31.040Z,101021.78
2022-07-25T07:57:59.759Z,101017.00
2022-07-25T08:00:29.191Z,101041.50
2022-07-25T08:02:57.268Z,101046.44
2022-07-25T08:05:25.976Z,101052.66
2022-07-25T08:07:54.106Z,101052.66
2022-07-25T08:10:24.264Z,101059.19
2022-07-25T08:12:52.248Z,101064.72
2022-07-25T08:15:21.452Z,101060.56
2022-07-25T08:17:51.042Z,101063.28
2022-07-25T08:20:37.625Z,101067.06
2022-07-25T08:23:07.282Z,101068.69
2022-07-25T08:25:37.031Z,101080.06
2022-07-25T08:28:06.583Z,101085.38
2022-07-25T08:30:37.509Z,101085.88
2022-07-25T08:33:07.868Z,101085.78
2022-07-25T08:35:36.577Z,101088.34
2022-07-25T08:38:05.073Z,101096.47
2022-07-25T08:40:33.398Z,101083.81
2022-07-25T08:43:02.803Z,101095.84
2022-07-25T08:45:30.783Z,101099.09
2022-07-25T08:47:58.792Z,101102.28
2022-07-25T08:50:27.557Z,101095.84
2022-07-25T08:53:10.409Z,101105.41
2022-07-25T08:55:45.119Z,101109.22
2022-07-25T08:58:14.857Z,101116.72
2022-07-25T09:00:42.871Z,101122.72
2022-07-25T09:03:10.931Z,101121.25
2022-07-25T09:05:39.166Z,101128.94
2022-07-25T09:08:08.327Z,101125.13
2022-07-25T09:10:37.099Z,101129.22
2022-07-25T09:13:07.877Z,101123.97
2022-07-25T09:15:37.777Z,101140.31
2022-07-25T09:18:10.738Z,101121.06
2022-07-25T09:20:40.562Z,101141.34
2022-07-25T09:23:08.634Z,101147.09
2022-07-25T09:25:36.811Z,101147.41
2022-07-25T09:28:15.069Z,101153.34
2022-07-25T09:30:54.946Z,101163.66
2022-07-25T09:33:23.112Z,101161.59
2022-07-25T09:35:51.052Z,101165.47
2022-07-25T09:38:19.127Z,101166.09
2022-07-25T09:40:55.440Z,101165.56
2022-07-25T09:43:23.787Z,101167.88
2022-07-25T09:45:53.228Z,101174.31
2022-07-25T09:48:21.607Z,101176.38
2022-07-25T09:50:49.585Z,101174.53
2022-07-25T09:53:17.530Z,101189.13
2022-07-25T09:55:45.791Z,101183.78
2022-07-25T09:58:14.357Z,101192.44
2022-07-25T10:00:42.872Z,101187.03
2022-07-25T10:03:17.904Z,101197.91
2022-07-25T10:05:54.945Z,101201.56
2022-07-25T10:08:22.908Z,101203.63
2022-07-25T10:10:50.902Z,101207.63
2022-07-25T10:13:29.919Z,101209.28
2022-07-25T10:15:58.647Z,101219.66
2022-07-25T10:18:29.138Z,101226.41
2022-07-25T10:20:57.907Z,101227.59
2022-07-25T10:23:26.614Z,101242.66
2022-07-25T10:26:04.456Z,101236.66
2022-07-25T10:28:43.126Z,101243.41
2022-07-25T10:31:23.012Z,101252.72
2022-07-25T10:33:56.603Z,101247.69
2022-07-25T10:36:24.978Z,101258.41
2022-07-25T10:38:54.040Z,101250.31
2022-07-25T10:41:26.050Z,101254.44
2022-07-25T10:43:56.840Z,101258.47
2022-07-25T10:46:28.153Z,101256.34
2022-07-25T10:49:01.518Z,101267.13
2022-07-25T10:51:29.854Z,101274.88
2022-07-25T10:53:57.804Z,101270.09
2022-07-25T10:56:26.575Z,101271.06
2022-07-25T10:58:55.524Z,101274.28
2022-07-25T11:01:24.825Z,101278.28
2022-07-25T11:03:53.345Z,101272.09
2022-07-25T11:06:32.545Z,101282.84
2022-07-25T11:09:01.408Z,101285.50
2022-07-25T11:11:36.668Z,101289.50
2022-07-25T11:14:04.750Z,101279.78
2022-07-25T11:16:32.797Z,101288.16
2022-07-25T11:19:00.981Z,101296.47
2022-07-25T11:21:28.945Z,101296.81
2022-07-25T11:23:58.257Z,101301.81
2022-07-25T11:26:26.258Z,101304.81
2022-07-25T11:28:54.170Z,101307.69
2022-07-25T11:31:23.889Z,101314.13
2022-07-25T11:33:51.923Z,101308.41
2022-07-25T11:36:19.926Z,101304.53
2022-07-25T11:38:49.321Z,101302.25
2022-07-25T11:41:28.780Z,101312.97
2022-07-25T11:43:57.312Z,101300.81
2022-07-25T11:46:25.962Z,101320.72
2022-07-25T11:48:55.874Z,101320.84
2022-07-25T11:51:24.013Z,101324.25
2022-07-25T11:53:52.840Z,101311.84
2022-07-25T11:59:12.544Z,101324.69
2022-07-25T12:01:41.866Z,101321.25
2022-07-25T12:04:14.301Z,101325.56
2022-07-25T12:06:42.526Z,101328.75
2022-07-25T12:09:18.536Z,101333.16
2022-07-25T12:11:49.683Z,101329.56
2022-07-25T12:14:17.643Z,101343.28
2022-07-25T12:16:45.654Z,101336.53
2022-07-25T12:19:20.033Z,101337.91
2022-07-25T12:21:47.970Z,101353.91
2022-07-25T12:24:15.859Z,101348.44
2022-07-25T12:26:43.866Z,101354.88
2022-07-25T12:29:13.188Z,101358.22
2022-07-25T12:31:41.146Z,101363.56
2022-07-25T12:34:09.257Z,101370.72
2022-07-25T12:36:44.171Z,101379.47
2022-07-25T12:39:12.215Z,101375.44
2022-07-25T12:41:42.446Z,101373.41
2022-07-25T12:44:16.695Z,101372.88
2022-07-25T12:46:49.290Z,101373.16
2022-07-25T12:49:18.110Z,101379.28
2022-07-25T12:51:46.128Z,101385.91
2022-07-25T12:54:21.593Z,101382.94
2022-07-25T12:56:50.182Z,101389.72
2022-07-25T12:59:19.569Z,101389.44
2022-07-25T13:01:47.584Z,101396.31
2022-07-25T13:04:15.605Z,101399.19
2022-07-25T13:06:43.620Z,101396.50
2022-07-25T13:09:11.871Z,101401.00
2022-07-25T13:11:39.827Z,101407.63
2022-07-25T13:14:10.415Z,101411.53
2022-07-25T13:16:39.894Z,101413.06
2022-07-25T13:19:08.834Z,101413.34
2022-07-25T13:21:37.371Z,101420.44
2022-07-25T13:24:07.174Z,101427.47
2022-07-25T13:26:35.534Z,101414.06
2022-07-25T13:29:03.511Z,101423.25
2022-07-25T13:31:32.837Z,101426.22
2022-07-25T13:34:04.937Z,101430.28
2022-07-25T13:36:33.587Z,101431.78
2022-07-25T13:39:02.137Z,101440.66
2022-07-25T13:41:30.108Z,101448.66
2022-07-25T13:43:58.071Z,101451.81
2022-07-25T13:46:26.251Z,101447.03
2022-07-25T13:48:54.271Z,101450.41
2022-07-25T13:51:23.674Z,101442.22
2022-07-25T13:53:51.625Z,101445.88
2022-07-25T13:56:19.546Z,101449.13
2022-07-25T13:58:48.015Z,101450.00
2022-07-25T14:01:16.367Z,101461.47
2022-07-25T14:03:44.359Z,101455.91
2022-07-25T14:06:12.331Z,101462.78
2022-07-25T14:08:41.750Z,101458.13
2022-07-25T14:11:09.739Z,101461.50
2022-07-25T14:13:38.131Z,101472.34
2022-07-25T14:16:06.574Z,101472.56
2022-07-25T14:18:34.632Z,101477.66
2022-07-25T14:21:02.742Z,101481.25
2022-07-25T14:23:30.685Z,101478.38
2022-07-25T14:26:00.581Z,101483.69
2022-07-25T14:28:28.595Z,101474.75
2022-07-25T14:30:56.695Z,101487.22
2022-07-25T14:33:24.771Z,101487.59
2022-07-25T14:35:52.786Z,101491.88
2022-07-25T14:38:20.753Z,101494.88
2022-07-25T14:40:49.085Z,101510.97
2022-07-25T14:43:18.440Z,101500.06
2022-07-25T14:45:46.363Z,101503.84
2022-07-25T14:48:14.319Z,101503.66
2022-07-25T14:50:42.378Z,101496.66
2022-07-25T14:53:10.669Z,101494.38
2022-07-25T14:55:38.648Z,101505.50
2022-07-25T14:58:06.758Z,101496.91
2022-07-25T15:00:36.114Z,101510.38
2022-07-25T15:03:04.170Z,101525.38
2022-07-25T15:05:32.101Z,101512.72
2022-07-25T15:08:00.079Z,101526.91
2022-07-25T15:10:28.223Z,101521.13
2022-07-25T15:13:13.948Z,101511.72
2022-07-25T15:15:46.150Z,101528.13
2022-07-25T15:18:14.261Z,101517.53
2022-07-25T15:20:42.251Z,101508.44
2022-07-25T15:23:10.265Z,101518.84
2022-07-25T15:28:26.309Z,101531.97
2022-07-25T15:30:56.002Z,101532.31
2022-07-25T15:33:24.014Z,101541.09
2022-07-25T15:35:51.953Z,101539.50
2022-07-25T15:38:19.947Z,101536.28
2022-07-25T15:40:48.053Z,101545.78
2022-07-25T15:43:16.033Z,101545.03
2022-07-25T15:45:45.896Z,101550.63
2022-07-25T15:48:16.165Z,101554.94
2022-07-25T15:50:48.058Z,101552.63
2022-07-25T15:53:16.342Z,101561.78
2022-07-25T15:55:44.516Z,101566.41
2022-07-25T15:58:12.710Z,101569.22
2022-07-25T16:00:40.778Z,101572.56
2022-07-25T16:03:08.822Z,101562.97
2022-07-25T16:05:38.548Z,101569.31
2022-07-25T16:08:10.585Z,101564.53
2022-07-25T16:10:38.613Z,101558.88
2022-07-25T16:13:07.093Z,101573.47
2022-07-25T16:15:35.167Z,101573.00
2022-07-25T16:18:03.409Z,101582.09
2022-07-25T16:20:40.526Z,101584.72
2022-07-25T16:23:09.966Z,101588.06
2022-07-25T16:25:38.021Z,101592.91
2022-07-25T16:28:06.489Z,101599.09
2022-07-25T16:30:34.496Z,101584.88
2022-07-25T16:33:02.462Z,101577.97
2022-07-25T16:35:30.667Z,101596.97
2022-07-25T16:38:00.114Z,101593.69
2022-07-25T16:40:30.843Z,101597.50
2022-07-25T16:42:59.805Z,101608.56
2022-07-25T16:45:28.102Z,101605.84
2022-07-25T16:47:56.354Z,101608.97
2022-07-25T16:50:24.287Z,101608.31
2022-07-25T16:52:53.663Z,101597.44
2022-07-25T16:55:23.063Z,101604.03
2022-07-25T16:57:51.001Z,101607.56
2022-07-25T17:00:19.319Z,101576.63
2022-07-25T17:02:47.326Z,101618.38
2022-07-25T17:05:15.399Z,101625.72
2022-07-25T17:07:43.399Z,101623.06
2022-07-25T17:10:11.765Z,101630.63
2022-07-25T17:12:41.058Z,101628.59
2022-07-25T17:15:13.049Z,101640.63
2022-07-25T17:17:41.018Z,101630.97
2022-07-25T17:20:10.302Z,101646.25
2022-07-25T17:22:38.846Z,101651.16
2022-07-25T17:25:07.875Z,101646.47
2022-07-25T17:27:37.202Z,101645.69
2022-07-25T17:30:07.995Z,101653.81
2022-07-25T17:32:36.084Z,101654.84
2022-07-25T17:35:04.269Z,101648.19
2022-07-25T17:37:32.406Z,101639.34
2022-07-25T17:40:00.370Z,101643.19
2022-07-25T17:42:28.366Z,101639.13
2022-07-25T17:44:56.315Z,101645.50
2022-07-25T17:47:25.619Z,101657.81
2022-07-25T17:49:53.703Z,101654.44
2022-07-25T17:52:21.806Z,101665.56
2022-07-25T17:54:49.773Z,101663.81
2022-07-25T17:57:17.933Z,101678.78
2022-07-25T17:59:45.910Z,101681.00
2022-07-25T18:02:13.907Z,101683.63
2022-07-25T18:04:43.238Z,101668.97
2022-07-25T18:07:11.239Z,101667.63
2022-07-25T18:09:39.149Z,101677.38
2022-07-25T18:12:07.696Z,101675.63
2022-07-25T18:14:35.645Z,101674.78
2022-07-25T18:17:03.943Z,101679.22
2022-07-25T18:19:31.864Z,101680.59
2022-07-25T18:22:01.202Z,101682.31
2022-07-25T18:24:30.258Z,101689.09
2022-07-25T18:26:58.500Z,101689.81
2022-07-25T18:29:26.505Z,101686.25
2022-07-25T18:31:54.724Z,101709.19
2022-07-25T18:34:22.700Z,101702.38
2022-07-25T18:36:50.664Z,101709.69
2022-07-25T18:39:20.068Z,101724.94
2022-07-25T18:41:48.207Z,101723.47
2022-07-25T18:44:16.295Z,101716.03
2022-07-25T18:46:45.682Z,101723.06
2022-07-25T18:49:13.879Z,101724.00
2022-07-25T18:51:41.904Z,101726.69
2022-07-25T18:54:10.211Z,101735.44
2022-07-25T18:56:39.919Z,101735.06
2022-07-25T18:59:08.216Z,101736.63
2022-07-25T19:01:37.348Z,101736.47
2022-07-25T19:04:06.218Z,101743.31
2022-07-25T19:06:34.452Z,101753.41
2022-07-25T19:09:02.390Z,101757.66
2022-07-25T19:11:30.355Z,101755.66
2022-07-25T19:13:59.782Z,101762.38
2022-07-25T19:16:27.772Z,101765.09
2022-07-25T19:18:55.770Z,101763.47
2022-07-25T19:21:23.804Z,101763.38
2022-07-25T19:23:51.881Z,101766.06
2022-07-25T19:26:20.033Z,101766.69
2022-07-25T19:28:48.000Z,101769.28
2022-07-25T19:31:17.563Z,101768.94
2022-07-25T19:33:46.641Z,101778.81
2022-07-25T19:36:14.673Z,101782.38
2022-07-25T19:38:42.633Z,101792.97
2022-07-25T19:41:10.593Z,101779.41
2022-07-25T19:43:38.519Z,101775.00
2022-07-25T19:46:06.631Z,101776.22
2022-07-25T19:48:36.143Z,101770.81
2022-07-25T19:51:04.119Z,101789.50
2022-07-25T19:53:32.625Z,101796.75
2022-07-25T19:56:01.310Z,101795.38
2022-07-25T19:58:29.282Z,101797.69
2022-07-25T20:00:57.342Z,101787.41
2022-07-25T20:03:25.297Z,101792.09
2022-07-25T20:05:54.620Z,101803.03
2022-07-25T20:08:22.568Z,101807.69
2022-07-25T20:10:50.471Z,101812.44
2022-07-25T20:13:18.466Z,101819.59
2022-07-25T20:15:46.430Z,101806.94
2022-07-25T20:18:19.300Z,101816.03
2022-07-25T20:20:47.859Z,101812.44
2022-07-25T20:23:17.201Z,101813.78
2022-07-25T20:25:45.291Z,101823.19
2022-07-25T20:28:13.394Z,101811.53
2022-07-25T20:30:41.615Z,101830.47
2022-07-25T20:33:09.934Z,101830.13
2022-07-25T20:35:38.102Z,101829.91
2022-07-25T20:38:09.800Z,101834.44
2022-07-25T20:40:43.867Z,101830.13
2022-07-25T20:43:16.279Z,101836.38
2022-07-25T20:45:44.336Z,101837.13
2022-07-25T20:48:12.424Z,101839.75
2022-07-25T20:50:40.393Z,101846.88
2022-07-25T20:53:08.542Z,101845.78
2022-07-25T20:55:36.507Z,101852.09
2022-07-25T20:58:05.840Z,101847.53
2022-07-25T21:00:33.958Z,101861.69
2022-07-25T21:03:01.978Z,101850.88
2022-07-25T21:05:30.062Z,101846.34
2022-07-25T21:07:58.939Z,101856.28
2022-07-25T21:10:26.950Z,101860.75
2022-07-25T21:12:56.667Z,101864.28
2022-07-25T21:15:25.965Z,101861.91
2022-07-25T21:17:53.989Z,101860.31
2022-07-25T21:20:21.987Z,101869.53
2022-07-25T21:22:50.715Z,101871.69
2022-07-25T21:25:18.691Z,101858.50
2022-07-25T21:27:46.725Z,101870.19
2022-07-25T21:30:15.254Z,101877.44
2022-07-25T21:32:44.958Z,101882.97
2022-07-25T21:35:12.993Z,101878.50
2022-07-25T21:37:40.969Z,101883.03
2022-07-25T21:40:10.449Z,101874.94
2022-07-25T21:42:38.422Z,101884.91
2022-07-25T21:45:07.577Z,101883.28
2022-07-25T21:47:35.549Z,101889.91
2022-07-25T21:50:24.948Z,101899.25
2022-07-25T21:52:53.294Z,101896.69
2022-07-25T21:55:21.369Z,101895.81
2022-07-25T21:57:49.552Z,101899.09
2022-07-25T22:00:17.857Z,101913.38
2022-07-25T22:02:46.382Z,101909.59
2022-07-25T22:05:15.982Z,101904.06
2022-07-25T22:07:44.030Z,101896.91
2022-07-25T22:10:12.432Z,101906.97
2022-07-25T22:12:40.587Z,101908.03
2022-07-25T22:15:09.064Z,101916.28
2022-07-25T22:17:48.284Z,101924.59
2022-07-25T22:20:19.298Z,101921.22
2022-07-25T22:22:47.737Z,101918.97
2022-07-25T22:25:15.967Z,101918.53
2022-07-25T22:27:43.861Z,101923.50
2022-07-25T22:30:17.999Z,101923.59
2022-07-25T22:32:47.174Z,101922.06
2022-07-25T22:35:15.260Z,101921.50
2022-07-25T22:37:44.598Z,101923.69
2022-07-25T22:40:13.453Z,101926.78
2022-07-25T22:42:41.391Z,101932.50
2022-07-25T22:45:10.049Z,101928.97
2022-07-25T22:47:37.974Z,101936.09
2022-07-25T22:50:06.970Z,101935.13
2022-07-25T22:52:35.466Z,101932.50
2022-07-25T22:55:05.148Z,101930.81
2022-07-25T22:57:37.248Z,101925.50
2022-07-25T23:00:06.772Z,101936.41
2022-07-25T23:02:34.755Z,101936.50
2022-07-25T23:05:02.911Z,101942.78
2022-07-25T23:07:30.924Z,101939.09
2022-07-25T23:09:58.917Z,101937.47
2022-07-25T23:12:28.264Z,101940.28
2022-07-25T23:14:56.377Z,101939.72
2022-07-25T23:17:24.781Z,101944.38
2022-07-25T23:19:53.672Z,101948.06
2022-07-25T23:22:22.224Z,101951.28
2022-07-25T23:24:50.223Z,101952.16
2022-07-25T23:27:18.189Z,101949.69
2022-07-25T23:29:47.529Z,101939.28
2022-07-25T23:32:15.535Z,101948.75
2022-07-25T23:34:43.607Z,101947.31
2022-07-25T23:37:11.494Z,101959.00
2022-07-25T23:39:39.436Z,101957.25
2022-07-25T23:42:07.517Z,101959.44
2022-07-25T23:44:36.470Z,101965.63
2022-07-25T23:47:10.210Z,101961.16
2022-07-25T23:49:38.805Z,101964.28
2022-07-25T23:52:06.834Z,101964.47
2022-07-25T23:54:35.071Z,101969.34
2022-07-25T23:57:03.071Z,101983.50
2022-07-25T23:59:31.044Z,101982.53
